createdAt,value
2018-08-03T00:00:07.214Z,97999.14
2018-08-03T00:02:36.473Z,97998.28
2018-08-03T00:05:05.508Z,97999.41
2018-08-03T00:07:34.430Z,98001.75
2018-08-03T00:10:03.625Z,97997.73
2018-08-03T00:12:32.635Z,97993.85
2018-08-03T00:15:01.696Z,98000.80
2018-08-03T00:17:30.494Z,97994.93
2018-08-03T00:19:59.292Z,97996.14
2018-08-03T00:22:28.509Z,98002.48
2018-08-03T00:24:57.662Z,98002.61
2018-08-03T00:27:27.011Z,98004.17
2018-08-03T00:29:56.258Z,98004.43
2018-08-03T00:32:25.599Z,98000.45
2018-08-03T00:34:54.558Z,98000.78
2018-08-03T00:37:23.802Z,98001.86
2018-08-03T00:39:53.376Z,98002.84
2018-08-03T00:42:22.552Z,98002.98
2018-08-03T00:44:51.703Z,98000.17
2018-08-03T00:47:20.769Z,97999.58
2018-08-03T00:49:49.802Z,97994.44
2018-08-03T00:52:18.846Z,97998.09
2018-08-03T00:54:47.975Z,97997.26
2018-08-03T00:57:17.006Z,97994.94
2018-08-03T00:59:45.989Z,98001.38
2018-08-03T01:02:15.051Z,98000.77
2018-08-03T01:04:44.202Z,97998.42
2018-08-03T01:07:13.430Z,97998.28
2018-08-03T01:09:42.342Z,98001.20
2018-08-03T01:12:11.359Z,97994.63
2018-08-03T01:14:40.661Z,97990.84
2018-08-03T01:17:09.751Z,97997.92
2018-08-03T01:19:38.673Z,97987.77
2018-08-03T01:22:07.982Z,97990.84
2018-08-03T01:24:36.843Z,97989.70
2018-08-03T01:27:05.852Z,97987.02
2018-08-03T01:29:34.762Z,97981.20
2018-08-03T01:32:03.988Z,97986.51
2018-08-03T01:34:33.118Z,97988.17
2018-08-03T01:37:02.361Z,97988.20
2018-08-03T01:39:31.603Z,97985.28
2018-08-03T01:42:00.742Z,97986.84
2018-08-03T01:44:29.599Z,97983.43
2018-08-03T01:46:58.599Z,97989.01
2018-08-03T01:49:27.821Z,97996.06
2018-08-03T01:51:57.073Z,97986.07
2018-08-03T01:54:26.239Z,97987.14
2018-08-03T01:56:55.282Z,97988.89
2018-08-03T01:59:24.356Z,97990.84
2018-08-03T02:01:53.311Z,97999.15
2018-08-03T02:04:22.586Z,97999.77
2018-08-03T02:06:51.844Z,97994.58
2018-08-03T02:09:20.992Z,98002.56
2018-08-03T02:11:50.134Z,98004.72
2018-08-03T02:14:19.282Z,98007.28
2018-08-03T02:16:48.426Z,98009.00
2018-08-03T02:19:17.689Z,98011.52
2018-08-03T02:21:46.450Z,98011.09
2018-08-03T02:24:15.382Z,98017.80
2018-08-03T02:26:44.458Z,98017.68
2018-08-03T02:29:13.602Z,98018.93
2018-08-03T02:31:42.469Z,98022.23
2018-08-03T02:34:11.689Z,98021.99
2018-08-03T02:36:40.823Z,98022.81
2018-08-03T02:39:11.410Z,98020.39
2018-08-03T02:41:40.610Z,98026.73
2018-08-03T02:44:10.311Z,98023.36
2018-08-03T02:46:39.476Z,98023.33
2018-08-03T02:49:08.530Z,98025.96
2018-08-03T02:51:37.247Z,98030.08
2018-08-03T02:54:06.231Z,98036.80
2018-08-03T02:56:35.182Z,98035.73
2018-08-03T02:59:04.341Z,98045.12
2018-08-03T03:01:33.410Z,98040.67
2018-08-03T03:04:02.575Z,98044.24
2018-08-03T03:06:31.742Z,98037.75
2018-08-03T03:09:00.984Z,98040.18
2018-08-03T03:11:30.238Z,98036.33
2018-08-03T03:13:59.381Z,98049.02
2018-08-03T03:16:28.658Z,98041.87
2018-08-03T03:18:57.750Z,98046.02
2018-08-03T03:23:54.363Z,98046.02
2018-08-03T03:26:23.375Z,98052.08
2018-08-03T03:28:52.946Z,98052.48
2018-08-03T03:31:22.140Z,98048.42
2018-08-03T03:33:51.377Z,98056.46
2018-08-03T03:36:20.525Z,98052.81
2018-08-03T03:38:49.333Z,98052.69
2018-08-03T03:41:18.343Z,98051.88
2018-08-03T03:43:47.501Z,98052.81
2018-08-03T03:46:16.390Z,98061.90
2018-08-03T03:48:45.638Z,98062.40
2018-08-03T03:51:14.854Z,98059.84
2018-08-03T03:53:43.901Z,98059.95
2018-08-03T03:56:13.260Z,98061.69
2018-08-03T03:58:42.884Z,98062.92
2018-08-03T04:01:11.815Z,98063.47
2018-08-03T04:03:40.951Z,98072.10
2018-08-03T04:06:10.028Z,98065.97
2018-08-03T04:08:38.947Z,98071.08
2018-08-03T04:11:08.028Z,98074.78
2018-08-03T04:13:37.017Z,98079.23
2018-08-03T04:16:06.387Z,98079.50
2018-08-03T04:18:35.369Z,98075.99
2018-08-03T04:21:04.271Z,98087.21
2018-08-03T04:23:33.435Z,98086.83
2018-08-03T04:26:02.354Z,98090.77
2018-08-03T04:28:31.146Z,98096.98
2018-08-03T04:31:00.400Z,98096.64
2018-08-03T04:33:29.338Z,98094.46
2018-08-03T04:35:58.666Z,98101.00
2018-08-03T04:38:27.840Z,98110.37
2018-08-03T04:40:56.786Z,98111.71
2018-08-03T04:43:25.818Z,98111.84
2018-08-03T04:45:54.971Z,98116.46
2018-08-03T04:48:24.167Z,98120.70
2018-08-03T04:50:53.082Z,98116.08
2018-08-03T04:53:22.186Z,98120.22
2018-08-03T04:55:51.313Z,98125.36
2018-08-03T04:58:20.133Z,98123.03
2018-08-03T05:00:49.028Z,98121.89
2018-08-03T05:03:18.154Z,98131.34
2018-08-03T05:05:47.186Z,98125.81
2018-08-03T05:08:16.239Z,98122.62
2018-08-03T05:10:45.686Z,98119.59
2018-08-03T05:13:14.961Z,98121.61
2018-08-03T05:15:43.945Z,98126.86
2018-08-03T05:18:13.146Z,98126.99
2018-08-03T05:20:42.257Z,98131.98
2018-08-03T05:23:11.338Z,98131.76
2018-08-03T05:25:40.315Z,98131.53
2018-08-03T05:28:09.454Z,98131.13
2018-08-03T05:30:38.270Z,98126.70
2018-08-03T05:33:07.282Z,98129.70
2018-08-03T05:35:36.473Z,98124.47
2018-08-03T05:38:05.433Z,98131.50
2018-08-03T05:40:34.733Z,98126.37
2018-08-03T05:43:03.914Z,98137.02
2018-08-03T05:45:33.262Z,98143.81
2018-08-03T05:48:02.322Z,98141.56
2018-08-03T05:50:31.126Z,98147.08
2018-08-03T05:53:00.383Z,98152.00
2018-08-03T05:55:29.677Z,98152.93
2018-08-03T05:57:59.898Z,98151.97
2018-08-03T06:00:29.006Z,98156.37
2018-08-03T06:02:58.376Z,98154.36
2018-08-03T06:05:27.553Z,98153.56
2018-08-03T06:07:56.399Z,98157.60
2018-08-03T06:10:25.431Z,98150.46
2018-08-03T06:12:54.620Z,98152.21
2018-08-03T06:15:23.389Z,98164.14
2018-08-03T06:17:52.450Z,98160.18
2018-08-03T06:20:21.310Z,98156.75
2018-08-03T06:22:50.370Z,98160.09
2018-08-03T06:25:19.198Z,98155.06
2018-08-03T06:27:48.027Z,98150.59
2018-08-03T06:30:16.986Z,98148.91
2018-08-03T06:32:45.842Z,98156.84
2018-08-03T06:35:15.039Z,98147.73
2018-08-03T06:37:44.293Z,98147.73
2018-08-03T06:40:13.238Z,98149.00
2018-08-03T06:42:42.587Z,98149.45
2018-08-03T06:45:11.883Z,98156.43
2018-08-03T06:47:40.964Z,98154.82
2018-08-03T06:50:10.279Z,98159.23
2018-08-03T06:52:39.302Z,98154.58
2018-08-03T06:55:08.678Z,98155.05
2018-08-03T06:57:37.667Z,98150.02
2018-08-03T07:00:07.547Z,98141.37
2018-08-03T07:02:36.471Z,98149.16
2018-08-03T07:05:05.670Z,98144.44
2018-08-03T07:07:34.783Z,98149.29
2018-08-03T07:10:03.854Z,98151.79
2018-08-03T07:12:32.712Z,98150.28
2018-08-03T07:15:02.092Z,98138.75
2018-08-03T07:17:31.043Z,98150.02
2018-08-03T07:20:00.290Z,98142.58
2018-08-03T07:22:29.131Z,98133.63
2018-08-03T07:24:57.940Z,98132.28
2018-08-03T07:27:26.759Z,98133.17
2018-08-03T07:29:55.594Z,98137.22
2018-08-03T07:32:24.673Z,98135.44
2018-08-03T07:34:53.917Z,98134.08
2018-08-03T07:37:22.696Z,98134.03
2018-08-03T07:39:51.726Z,98135.64
2018-08-03T07:42:20.783Z,98131.36
2018-08-03T07:44:49.912Z,98129.73
2018-08-03T07:47:19.082Z,98130.40
2018-08-03T07:49:48.342Z,98127.33
2018-08-03T07:52:17.223Z,98126.11
2018-08-03T07:54:46.270Z,98125.55
2018-08-03T07:57:15.472Z,98123.23
2018-08-03T07:59:44.602Z,98123.95
2018-08-03T08:02:13.868Z,98119.20
2018-08-03T08:04:43.203Z,98120.53
2018-08-03T08:07:11.955Z,98124.62
2018-08-03T08:09:41.343Z,98123.01
2018-08-03T08:12:10.291Z,98117.03
2018-08-03T08:14:39.418Z,98120.02
2018-08-03T08:17:08.583Z,98116.97
2018-08-03T08:19:37.626Z,98117.27
2018-08-03T08:22:06.848Z,98115.91
2018-08-03T08:24:36.011Z,98117.14
2018-08-03T08:27:06.035Z,98113.22
2018-08-03T08:29:35.180Z,98115.91
2018-08-03T08:32:04.318Z,98115.62
2018-08-03T08:34:33.454Z,98118.12
2018-08-03T08:37:02.608Z,98118.95
2018-08-03T08:39:31.805Z,98114.03
2018-08-03T08:42:01.047Z,98118.29
2018-08-03T08:44:29.989Z,98110.80
2018-08-03T08:46:59.028Z,98104.73
2018-08-03T08:49:28.030Z,98104.61
2018-08-03T08:51:57.066Z,98104.80
2018-08-03T08:54:26.156Z,98102.21
2018-08-03T08:56:55.359Z,98098.39
2018-08-03T08:59:24.543Z,98102.33
2018-08-03T09:01:53.659Z,98100.72
2018-08-03T09:04:22.841Z,98099.42
2018-08-03T09:06:52.143Z,98102.89
2018-08-03T09:09:21.229Z,98095.04
2018-08-03T09:11:50.237Z,98100.05
2018-08-03T09:14:19.425Z,98096.06
2018-08-03T09:16:48.318Z,98102.44
2018-08-03T09:19:18.439Z,98097.01
2018-08-03T09:21:47.737Z,98101.02
2018-08-03T09:24:16.968Z,98098.77
2018-08-03T09:26:45.720Z,98098.69
2018-08-03T09:29:14.910Z,98093.06
2018-08-03T09:31:43.942Z,98092.62
2018-08-03T09:34:13.275Z,98092.14
2018-08-03T09:36:42.312Z,98093.06
2018-08-03T09:39:11.775Z,98086.59
2018-08-03T09:41:41.015Z,98091.28
2018-08-03T09:44:10.249Z,98082.27
2018-08-03T09:46:39.203Z,98074.69
2018-08-03T09:49:08.858Z,98081.18
2018-08-03T09:51:37.924Z,98079.77
2018-08-03T09:54:07.046Z,98074.81
2018-08-03T09:56:36.170Z,98076.22
2018-08-03T09:59:05.482Z,98073.45
2018-08-03T10:01:34.702Z,98073.42
2018-08-03T10:04:03.673Z,98070.35
2018-08-03T10:06:32.815Z,98070.93
2018-08-03T10:09:02.067Z,98065.47
2018-08-03T10:11:31.116Z,98061.84
2018-08-03T10:14:00.250Z,98058.81
2018-08-03T10:16:29.494Z,98064.52
2018-08-03T10:18:58.649Z,98062.26
2018-08-03T10:21:27.790Z,98058.52
2018-08-03T10:23:57.094Z,98054.00
2018-08-03T10:26:26.174Z,98055.53
2018-08-03T10:28:55.303Z,98052.55
2018-08-03T10:31:24.569Z,98045.39
2018-08-03T10:33:54.117Z,98046.61
2018-08-03T10:36:23.370Z,98043.41
2018-08-03T10:38:52.725Z,98041.77
2018-08-03T10:41:21.564Z,98042.46
2018-08-03T10:43:50.506Z,98046.02
2018-08-03T10:46:19.671Z,98044.34
2018-08-03T10:48:48.668Z,98041.73
2018-08-03T10:51:17.717Z,98038.81
2018-08-03T10:53:47.008Z,98033.90
2018-08-03T10:56:16.605Z,98027.98
2018-08-03T10:58:45.558Z,98028.14
2018-08-03T11:01:14.713Z,98024.97
2018-08-03T11:03:43.694Z,98016.98
2018-08-03T11:06:13.074Z,98014.16
2018-08-03T11:08:41.883Z,98019.73
2018-08-03T11:11:10.956Z,98020.13
2018-08-03T11:13:40.205Z,98022.47
2018-08-03T11:16:09.354Z,98019.84
2018-08-03T11:18:38.433Z,98017.59
2018-08-03T11:21:07.330Z,98018.50
2018-08-03T11:23:36.554Z,98014.77
2018-08-03T11:26:05.383Z,98012.36
2018-08-03T11:28:34.505Z,98014.45
2018-08-03T11:31:03.779Z,98015.16
2018-08-03T11:33:33.012Z,98016.31
2018-08-03T11:36:01.794Z,98010.89
2018-08-03T11:38:30.711Z,98016.72
2018-08-03T11:40:59.926Z,98020.83
2018-08-03T11:43:29.376Z,98014.16
2018-08-03T11:45:58.615Z,98007.87
2018-08-03T11:48:27.565Z,98011.02
2018-08-03T11:50:56.548Z,98011.54
2018-08-03T11:53:25.511Z,97998.05
2018-08-03T11:55:54.794Z,97997.75
2018-08-03T11:58:23.716Z,97999.80
2018-08-03T12:00:52.914Z,98000.30
2018-08-03T12:03:22.047Z,97992.55
2018-08-03T12:05:51.395Z,97986.66
2018-08-03T12:08:20.648Z,97987.28
2018-08-03T12:10:49.513Z,97981.41
2018-08-03T12:13:18.770Z,97980.78
2018-08-03T12:15:47.592Z,97985.09
2018-08-03T12:18:16.849Z,97981.24
2018-08-03T12:20:46.984Z,97978.23
2018-08-03T12:23:15.966Z,97975.86
2018-08-03T12:25:45.095Z,97972.08
2018-08-03T12:28:14.306Z,97968.66
2018-08-03T12:30:43.643Z,97969.47
2018-08-03T12:33:12.916Z,97963.20
2018-08-03T12:35:42.152Z,97964.31
2018-08-03T12:38:10.840Z,97958.02
2018-08-03T12:40:39.903Z,97952.48
2018-08-03T12:43:09.036Z,97943.19
2018-08-03T12:45:38.171Z,97951.22
2018-08-03T12:48:07.027Z,97951.34
2018-08-03T12:50:36.144Z,97946.97
2018-08-03T12:53:05.143Z,97945.35
2018-08-03T12:55:34.046Z,97946.08
2018-08-03T12:58:02.995Z,97941.21
2018-08-03T13:00:32.020Z,97936.23
2018-08-03T13:03:01.267Z,97936.94
2018-08-03T13:05:30.255Z,97938.50
2018-08-03T13:07:59.418Z,97935.94
2018-08-03T13:10:28.088Z,97940.90
2018-08-03T13:12:57.438Z,97936.72
2018-08-03T13:15:26.486Z,97934.17
2018-08-03T13:17:55.439Z,97920.81
2018-08-03T13:20:24.630Z,97925.07
2018-08-03T13:22:59.589Z,97924.23
2018-08-03T13:25:28.642Z,97922.58
2018-08-03T13:27:57.766Z,97917.50
2018-08-03T13:30:26.739Z,97923.24
2018-08-03T13:32:55.660Z,97922.02
2018-08-03T13:35:24.837Z,97914.02
2018-08-03T13:37:54.016Z,97911.23
2018-08-03T13:40:23.064Z,97909.00
2018-08-03T13:42:51.940Z,97899.85
2018-08-03T13:45:20.901Z,97898.95
2018-08-03T13:47:50.020Z,97895.92
2018-08-03T13:50:19.069Z,97892.53
2018-08-03T13:52:47.918Z,97890.47
2018-08-03T13:55:16.971Z,97892.73
2018-08-03T13:57:46.160Z,97884.59
2018-08-03T14:00:15.302Z,97886.06
2018-08-03T14:02:44.806Z,97884.01
2018-08-03T14:05:13.802Z,97883.78
2018-08-03T14:07:43.085Z,97881.23
2018-08-03T14:10:12.148Z,97882.34
2018-08-03T14:12:41.271Z,97886.77
2018-08-03T14:15:10.464Z,97882.05
2018-08-03T14:17:39.682Z,97886.03
2018-08-03T14:20:08.922Z,97886.48
2018-08-03T14:22:38.044Z,97888.08
2018-08-03T14:25:07.056Z,97886.34
2018-08-03T14:27:36.280Z,97876.83
2018-08-03T14:30:05.881Z,97885.65
2018-08-03T14:32:34.819Z,97871.56
2018-08-03T14:35:04.024Z,97872.31
2018-08-03T14:37:33.314Z,97878.40
2018-08-03T14:40:02.328Z,97867.95
2018-08-03T14:42:31.132Z,97869.28
2018-08-03T14:45:00.020Z,97863.59
2018-08-03T14:47:29.259Z,97866.14
2018-08-03T14:49:58.554Z,97860.41
2018-08-03T14:52:27.822Z,97865.88
2018-08-03T14:54:56.854Z,97860.80
2018-08-03T14:57:25.946Z,97866.06
2018-08-03T14:59:54.889Z,97863.30
2018-08-03T15:02:23.939Z,97861.03
2018-08-03T15:04:52.990Z,97857.50
2018-08-03T15:07:22.074Z,97860.06
2018-08-03T15:09:51.404Z,97854.45
2018-08-03T15:12:20.482Z,97849.60
2018-08-03T15:14:49.449Z,97845.38
2018-08-03T15:17:18.252Z,97850.95
2018-08-03T15:19:47.501Z,97854.63
2018-08-03T15:22:16.728Z,97852.09
2018-08-03T15:24:45.753Z,97850.86
2018-08-03T15:27:14.730Z,97844.66
2018-08-03T15:29:43.559Z,97853.91
2018-08-03T15:32:12.335Z,97855.31
2018-08-03T15:34:41.533Z,97846.84
2018-08-03T15:37:10.627Z,97846.81
2018-08-03T15:39:39.934Z,97850.53
2018-08-03T15:42:09.078Z,97850.99
2018-08-03T15:44:38.321Z,97850.27
2018-08-03T15:47:07.104Z,97845.91
2018-08-03T15:49:36.307Z,97851.69
2018-08-03T15:52:05.518Z,97850.73
2018-08-03T15:54:34.766Z,97849.15
2018-08-03T15:57:04.119Z,97850.67
2018-08-03T15:59:32.912Z,97852.14
2018-08-03T16:02:02.155Z,97844.72
2018-08-03T16:04:31.322Z,97852.89
2018-08-03T16:07:00.438Z,97850.55
2018-08-03T16:09:29.520Z,97849.20
2018-08-03T16:11:58.615Z,97849.97
2018-08-03T16:14:27.909Z,97856.41
2018-08-03T16:16:56.977Z,97864.22
2018-08-03T16:19:25.846Z,97866.09
2018-08-03T16:21:54.734Z,97869.30
2018-08-03T16:24:23.810Z,97866.91
2018-08-03T16:26:52.943Z,97873.02
2018-08-03T16:29:22.031Z,97873.00
2018-08-03T16:31:50.970Z,97865.56
2018-08-03T16:34:19.839Z,97868.80
2018-08-03T16:36:48.691Z,97870.47
2018-08-03T16:39:17.965Z,97870.65
2018-08-03T16:41:47.205Z,97868.94
2018-08-03T16:44:16.240Z,97874.05
2018-08-03T16:46:45.566Z,97876.23
2018-08-03T16:49:14.531Z,97876.06
2018-08-03T16:51:43.762Z,97880.77
2018-08-03T16:54:12.753Z,97884.50
2018-08-03T16:56:41.902Z,97884.14
2018-08-03T16:59:11.050Z,97886.52
2018-08-03T17:01:40.151Z,97892.21
2018-08-03T17:04:08.883Z,97890.53
2018-08-03T17:06:38.073Z,97892.73
2018-08-03T17:09:09.422Z,97896.84
2018-08-03T17:11:38.426Z,97903.45
2018-08-03T17:14:07.759Z,97904.89
2018-08-03T17:16:36.887Z,97907.02
2018-08-03T17:19:05.852Z,97935.84
2018-08-03T17:21:35.150Z,97937.33
2018-08-03T17:24:04.035Z,97929.36
2018-08-03T17:26:33.025Z,97932.62
2018-08-03T17:29:01.876Z,97950.75
2018-08-03T17:31:31.060Z,97949.45
2018-08-03T17:34:00.003Z,97952.99
2018-08-03T17:36:29.168Z,97947.55
2018-08-03T17:38:58.056Z,97944.09
2018-08-03T17:41:26.956Z,97953.59
2018-08-03T17:43:55.810Z,97945.82
2018-08-03T17:46:24.758Z,97945.04
2018-08-03T17:48:54.467Z,97949.92
2018-08-03T17:51:23.726Z,97953.47
2018-08-03T17:53:52.958Z,97951.34
2018-08-03T17:56:22.224Z,97963.88
2018-08-03T17:58:51.039Z,97957.31
2018-08-03T18:01:20.323Z,97965.63
2018-08-03T18:03:49.343Z,97963.53
2018-08-03T18:06:18.494Z,97964.29
2018-08-03T18:08:47.730Z,97973.70
2018-08-03T18:11:16.816Z,97975.41
2018-08-03T18:13:46.010Z,97978.88
2018-08-03T18:16:14.767Z,97980.63
2018-08-03T18:18:43.914Z,97980.71
2018-08-03T18:21:13.024Z,97988.44
2018-08-03T18:23:42.304Z,97989.83
2018-08-03T18:26:11.581Z,97987.01
2018-08-03T18:28:40.754Z,97983.05
2018-08-03T18:31:09.998Z,97991.52
2018-08-03T18:33:39.255Z,97991.04
2018-08-03T18:36:08.232Z,97989.70
2018-08-03T18:38:37.239Z,97991.81
2018-08-03T18:41:06.462Z,97989.27
2018-08-03T18:43:35.895Z,97995.51
2018-08-03T18:46:04.824Z,97987.01
2018-08-03T18:48:34.014Z,97989.61
2018-08-03T18:51:03.263Z,98000.88
2018-08-03T18:53:32.094Z,97994.52
2018-08-03T18:56:01.280Z,98000.09
2018-08-03T18:58:30.478Z,97995.75
2018-08-03T19:00:59.594Z,97997.75
2018-08-03T19:03:28.898Z,97992.38
2018-08-03T19:05:58.126Z,98004.81
2018-08-03T19:08:27.183Z,98005.38
2018-08-03T19:10:56.372Z,98008.52
2018-08-03T19:13:25.432Z,98004.83
2018-08-03T19:15:54.574Z,98006.30
2018-08-03T19:18:23.802Z,98015.94
2018-08-03T19:20:53.059Z,98008.16
2018-08-03T19:23:22.408Z,98014.33
2018-08-03T19:25:51.239Z,98018.97
2018-08-03T19:28:20.423Z,98020.13
2018-08-03T19:30:49.320Z,98018.11
2018-08-03T19:33:18.334Z,98016.49
2018-08-03T19:35:47.538Z,98010.91
2018-08-03T19:38:16.837Z,98012.52
2018-08-03T19:40:45.655Z,98015.57
2018-08-03T19:43:14.927Z,98017.70
2018-08-03T19:45:43.961Z,98018.72
2018-08-03T19:48:13.225Z,98012.48
2018-08-03T19:50:42.575Z,98019.77
2018-08-03T19:53:11.461Z,98009.64
2018-08-03T19:55:40.579Z,98013.86
2018-08-03T19:58:09.620Z,98014.86
2018-08-03T20:00:38.762Z,98019.60
2018-08-03T20:03:08.059Z,98021.05
2018-08-03T20:05:37.453Z,98022.58
2018-08-03T20:08:06.994Z,98029.09
2018-08-03T20:10:36.175Z,98029.48
2018-08-03T20:13:05.319Z,98035.34
2018-08-03T20:15:34.224Z,98037.17
2018-08-03T20:18:03.475Z,98039.97
2018-08-03T20:20:32.867Z,98033.25
2018-08-03T20:23:02.180Z,98031.29
2018-08-03T20:25:31.406Z,98025.27
2018-08-03T20:28:00.336Z,98032.99
2018-08-03T20:30:29.323Z,98034.87
2018-08-03T20:32:58.459Z,98025.55
2018-08-03T20:35:27.770Z,98031.42
2018-08-03T20:37:56.771Z,98039.10
2018-08-03T20:40:25.971Z,98035.73
2018-08-03T20:42:55.266Z,98035.50
2018-08-03T20:45:24.081Z,98027.67
2018-08-03T20:47:52.895Z,98029.45
2018-08-03T20:50:22.223Z,98027.21
2018-08-03T20:52:51.474Z,98020.84
2018-08-03T20:55:20.687Z,98019.75
2018-08-03T20:57:49.756Z,98019.55
2018-08-03T21:00:18.514Z,98022.29
2018-08-03T21:02:47.456Z,98018.83
2018-08-03T21:05:16.506Z,98024.59
2018-08-03T21:07:45.587Z,98031.26
2018-08-03T21:10:14.858Z,98035.57
2018-08-03T21:12:44.032Z,98040.02
2018-08-03T21:15:13.359Z,98046.17
2018-08-03T21:17:42.246Z,98040.94
2018-08-03T21:20:11.292Z,98038.11
2018-08-03T21:22:40.492Z,98043.10
2018-08-03T21:25:09.647Z,98042.63
2018-08-03T21:27:38.801Z,98043.34
2018-08-03T21:30:09.453Z,98045.45
2018-08-03T21:32:38.484Z,98043.00
2018-08-03T21:35:07.807Z,98036.48
2018-08-03T21:37:36.703Z,98040.51
2018-08-03T21:40:06.351Z,98046.06
2018-08-03T21:42:35.758Z,98043.80
2018-08-03T21:45:05.287Z,98046.06
2018-08-03T21:47:34.447Z,98042.66
2018-08-03T21:50:03.618Z,98042.52
2018-08-03T21:52:32.914Z,98043.48
2018-08-03T21:55:01.763Z,98043.63
2018-08-03T21:57:30.881Z,98045.92
2018-08-03T21:59:59.885Z,98046.41
2018-08-03T22:02:28.935Z,98050.91
2018-08-03T22:04:57.987Z,98055.84
2018-08-03T22:07:26.726Z,98049.14
2018-08-03T22:09:56.223Z,98059.34
2018-08-03T22:12:25.483Z,98061.61
2018-08-03T22:14:54.639Z,98059.53
2018-08-03T22:17:24.045Z,98061.58
2018-08-03T22:19:53.031Z,98055.06
2018-08-03T22:22:22.121Z,98056.41
2018-08-03T22:24:51.230Z,98053.05
2018-08-03T22:27:20.273Z,98049.25
2018-08-03T22:29:49.552Z,98058.80
2018-08-03T22:32:18.492Z,98063.03
2018-08-03T22:34:47.510Z,98064.52
2018-08-03T22:37:16.602Z,98069.00
2018-08-03T22:39:45.707Z,98068.19
2018-08-03T22:42:15.050Z,98071.52
2018-08-03T22:44:44.129Z,98076.09
2018-08-03T22:47:13.175Z,98068.73
2018-08-03T22:49:42.241Z,98068.50
2018-08-03T22:52:11.361Z,98071.08
2018-08-03T22:54:40.399Z,98075.34
2018-08-03T22:57:09.361Z,98068.91
2018-08-03T22:59:38.502Z,98071.11
2018-08-03T23:02:08.459Z,98065.36
2018-08-03T23:04:38.730Z,98065.87
2018-08-03T23:07:08.193Z,98070.00
2018-08-03T23:09:37.281Z,98074.02
2018-08-03T23:12:10.407Z,98066.13
2018-08-03T23:14:39.613Z,98069.27
2018-08-03T23:17:08.634Z,98069.12
2018-08-03T23:19:37.812Z,98072.79
2018-08-03T23:22:07.062Z,98070.98
2018-08-03T23:24:36.362Z,98068.31
2018-08-03T23:27:05.482Z,98062.21
2018-08-03T23:29:34.496Z,98067.31
2018-08-03T23:32:03.677Z,98062.57
2018-08-03T23:34:32.730Z,98059.52
2018-08-03T23:37:02.095Z,98057.34
2018-08-03T23:39:31.233Z,98052.82
2018-08-03T23:42:00.363Z,98050.05
2018-08-03T23:44:29.518Z,98051.64
2018-08-03T23:46:58.639Z,98053.58
2018-08-03T23:49:27.651Z,98048.45
2018-08-03T23:51:56.950Z,98046.52
2018-08-03T23:54:26.098Z,98042.63
2018-08-03T23:56:55.358Z,98041.51
2018-08-03T23:59:24.042Z,98043.70
